createdAt,value
2019-01-29T00:00:37.709Z,98330.16
2019-01-29T00:03:06.971Z,98333.35
2019-01-29T00:05:34.949Z,98331.71
2019-01-29T00:08:03.051Z,98337.45
2019-01-29T00:10:31.413Z,98331.59
2019-01-29T00:13:00.208Z,98334.58
2019-01-29T00:15:28.282Z,98344.70
2019-01-29T00:17:56.257Z,98343.26
2019-01-29T00:20:24.264Z,98331.49
2019-01-29T00:22:52.316Z,98341.61
2019-01-29T00:25:20.282Z,98346.21
2019-01-29T00:27:48.125Z,98341.69
2019-01-29T00:30:16.341Z,98346.63
2019-01-29T00:32:44.327Z,98340.22
2019-01-29T00:35:12.481Z,98344.34
2019-01-29T00:37:40.481Z,98353.80
2019-01-29T00:40:09.331Z,98351.05
2019-01-29T00:42:37.815Z,98350.84
2019-01-29T00:45:06.742Z,98358.06
2019-01-29T00:47:34.819Z,98354.52
2019-01-29T00:50:03.428Z,98363.63
2019-01-29T00:52:32.323Z,98358.09
2019-01-29T00:55:00.233Z,98362.06
2019-01-29T00:57:28.194Z,98369.53
2019-01-29T00:59:56.009Z,98366.62
2019-01-29T01:02:24.080Z,98368.27
2019-01-29T01:04:52.138Z,98372.32
2019-01-29T01:07:20.013Z,98372.02
2019-01-29T01:09:47.882Z,98368.44
2019-01-29T01:12:15.813Z,98375.17
2019-01-29T01:14:43.686Z,98379.41
2019-01-29T01:17:11.822Z,98379.41
2019-01-29T01:19:39.809Z,98385.01
2019-01-29T01:22:07.917Z,98382.19
2019-01-29T01:24:35.737Z,98376.90
2019-01-29T01:27:03.759Z,98383.06
2019-01-29T01:29:31.723Z,98384.41
2019-01-29T01:31:59.684Z,98388.00
2019-01-29T01:34:27.682Z,98388.00
2019-01-29T01:36:55.531Z,98385.33
2019-01-29T01:39:23.425Z,98390.23
2019-01-29T01:41:51.487Z,98386.47
2019-01-29T01:44:19.382Z,98381.87
2019-01-29T01:46:47.285Z,98382.55
2019-01-29T01:49:15.360Z,98385.13
2019-01-29T01:51:43.197Z,98385.89
2019-01-29T01:54:11.039Z,98386.69
2019-01-29T01:56:38.846Z,98395.52
2019-01-29T01:59:06.977Z,98392.39
2019-01-29T02:01:35.064Z,98397.97
2019-01-29T02:04:03.039Z,98396.52
2019-01-29T02:06:30.874Z,98401.42
2019-01-29T02:08:58.739Z,98398.47
2019-01-29T02:11:26.772Z,98404.41
2019-01-29T02:13:54.630Z,98409.09
2019-01-29T02:16:22.507Z,98402.45
2019-01-29T02:18:50.450Z,98417.34
2019-01-29T02:21:19.745Z,98412.78
2019-01-29T02:23:47.638Z,98417.86
2019-01-29T02:26:15.402Z,98410.80
2019-01-29T02:28:43.406Z,98422.58
2019-01-29T02:31:11.332Z,98420.38
2019-01-29T02:33:41.716Z,98419.50
2019-01-29T02:36:09.848Z,98421.98
2019-01-29T02:38:37.627Z,98421.48
2019-01-29T02:41:05.594Z,98428.53
2019-01-29T02:43:34.298Z,98430.57
2019-01-29T02:46:02.187Z,98435.84
2019-01-29T02:48:29.998Z,98440.91
2019-01-29T02:50:57.883Z,98431.91
2019-01-29T02:53:26.101Z,98434.02
2019-01-29T02:55:53.899Z,98446.27
2019-01-29T02:58:21.858Z,98445.97
2019-01-29T03:00:49.710Z,98438.63
2019-01-29T03:03:17.556Z,98451.67
2019-01-29T03:05:45.588Z,98451.45
2019-01-29T03:08:13.574Z,98457.42
2019-01-29T03:10:41.433Z,98462.11
2019-01-29T03:13:09.505Z,98464.68
2019-01-29T03:15:37.375Z,98466.76
2019-01-29T03:18:05.487Z,98476.84
2019-01-29T03:20:33.655Z,98478.48
2019-01-29T03:23:01.514Z,98486.97
2019-01-29T03:25:29.497Z,98492.12
2019-01-29T03:27:57.349Z,98492.50
2019-01-29T03:30:25.440Z,98489.00
2019-01-29T03:32:53.526Z,98494.53
2019-01-29T03:35:21.639Z,98499.72
2019-01-29T03:37:49.676Z,98497.61
2019-01-29T03:40:20.482Z,98506.86
2019-01-29T03:42:48.449Z,98517.07
2019-01-29T03:45:17.223Z,98513.44
2019-01-29T03:47:45.272Z,98524.42
2019-01-29T03:50:14.951Z,98524.88
2019-01-29T03:52:42.979Z,98534.33
2019-01-29T03:55:11.022Z,98532.01
2019-01-29T03:57:39.103Z,98538.21
2019-01-29T04:00:10.755Z,98537.23
2019-01-29T04:02:38.707Z,98535.26
2019-01-29T04:05:06.854Z,98541.97
2019-01-29T04:07:40.818Z,98545.43
2019-01-29T04:10:10.453Z,98548.39
2019-01-29T04:12:38.344Z,98560.97
2019-01-29T04:15:08.573Z,98564.43
2019-01-29T04:17:36.584Z,98561.81
2019-01-29T04:20:05.187Z,98560.34
2019-01-29T04:22:33.084Z,98562.83
2019-01-29T04:25:00.968Z,98561.86
2019-01-29T04:27:29.081Z,98578.23
2019-01-29T04:29:57.443Z,98572.50
2019-01-29T04:32:25.488Z,98581.78
2019-01-29T04:34:54.349Z,98583.89
2019-01-29T04:37:22.208Z,98592.03
2019-01-29T04:39:50.688Z,98591.23
2019-01-29T04:42:18.595Z,98593.00
2019-01-29T04:44:46.370Z,98598.45
2019-01-29T04:47:14.227Z,98609.26
2019-01-29T04:49:41.998Z,98602.72
2019-01-29T04:52:09.959Z,98608.97
2019-01-29T04:54:37.899Z,98613.19
2019-01-29T04:57:05.959Z,98613.02
2019-01-29T04:59:33.698Z,98619.44
2019-01-29T05:02:01.667Z,98627.13
2019-01-29T05:04:29.689Z,98633.20
2019-01-29T05:06:57.484Z,98638.63
2019-01-29T05:09:25.439Z,98646.08
2019-01-29T05:11:53.331Z,98646.58
2019-01-29T05:14:21.105Z,98653.88
2019-01-29T05:16:49.344Z,98648.75
2019-01-29T05:19:17.713Z,98665.41
2019-01-29T05:21:45.718Z,98662.52
2019-01-29T05:24:13.585Z,98665.19
2019-01-29T05:26:41.458Z,98669.06
2019-01-29T05:29:09.385Z,98668.61
2019-01-29T05:31:37.455Z,98675.73
2019-01-29T05:34:05.607Z,98671.28
2019-01-29T05:36:33.598Z,98679.76
2019-01-29T05:39:01.486Z,98669.19
2019-01-29T05:41:29.433Z,98679.24
2019-01-29T05:43:57.402Z,98682.61
2019-01-29T05:46:25.444Z,98693.13
2019-01-29T05:48:53.236Z,98699.22
2019-01-29T05:51:21.227Z,98699.56
2019-01-29T05:53:49.171Z,98710.81
2019-01-29T05:56:16.957Z,98702.97
2019-01-29T05:58:44.764Z,98704.90
2019-01-29T06:01:12.517Z,98718.89
2019-01-29T06:03:40.549Z,98720.66
2019-01-29T06:06:08.512Z,98727.08
2019-01-29T06:08:36.362Z,98726.64
2019-01-29T06:11:04.327Z,98733.12
2019-01-29T06:13:32.315Z,98744.33
2019-01-29T06:16:00.270Z,98734.55
2019-01-29T06:18:28.054Z,98749.63
2019-01-29T06:20:56.057Z,98740.00
2019-01-29T06:23:23.952Z,98749.44
2019-01-29T06:25:51.878Z,98757.86
2019-01-29T06:28:19.800Z,98756.11
2019-01-29T06:30:47.672Z,98764.48
2019-01-29T06:33:15.794Z,98774.60
2019-01-29T06:35:43.857Z,98771.91
2019-01-29T06:38:13.097Z,98775.70
2019-01-29T06:40:41.065Z,98786.30
2019-01-29T06:43:14.970Z,98780.11
2019-01-29T06:45:43.049Z,98798.40
2019-01-29T06:48:11.346Z,98799.66
2019-01-29T06:50:39.266Z,98801.31
2019-01-29T06:53:07.288Z,98815.34
2019-01-29T06:55:35.457Z,98811.36
2019-01-29T06:58:03.598Z,98817.88
2019-01-29T07:00:33.555Z,98804.77
2019-01-29T07:03:01.904Z,98822.64
2019-01-29T07:05:30.643Z,98822.36
2019-01-29T07:07:58.653Z,98838.89
2019-01-29T07:10:27.609Z,98836.41
2019-01-29T07:12:56.256Z,98845.80
2019-01-29T07:15:42.970Z,98848.56
2019-01-29T07:18:31.692Z,98857.15
2019-01-29T07:20:59.656Z,98858.88
2019-01-29T07:23:27.549Z,98851.57
2019-01-29T07:25:55.487Z,98861.41
2019-01-29T07:28:23.377Z,98875.64
2019-01-29T07:30:51.536Z,98875.09
2019-01-29T07:33:19.486Z,98867.52
2019-01-29T07:35:47.531Z,98878.09
2019-01-29T07:38:15.618Z,98879.33
2019-01-29T07:40:43.518Z,98881.02
2019-01-29T07:43:11.482Z,98885.13
2019-01-29T07:45:39.452Z,98883.95
2019-01-29T07:48:07.453Z,98896.02
2019-01-29T07:50:35.529Z,98895.59
2019-01-29T07:53:03.731Z,98905.52
2019-01-29T07:55:31.722Z,98906.48
2019-01-29T07:57:59.634Z,98911.55
2019-01-29T08:00:27.504Z,98913.45
2019-01-29T08:02:55.405Z,98928.28
2019-01-29T08:05:23.374Z,98929.06
2019-01-29T08:07:51.814Z,98917.21
2019-01-29T08:10:19.843Z,98924.63
2019-01-29T08:12:47.794Z,98934.39
2019-01-29T08:15:16.113Z,98928.67
2019-01-29T08:17:44.177Z,98932.28
2019-01-29T08:20:12.631Z,98937.08
2019-01-29T08:22:40.499Z,98939.17
2019-01-29T08:25:08.938Z,98932.13
2019-01-29T08:27:36.922Z,98940.05
2019-01-29T08:30:06.507Z,98945.72
2019-01-29T08:32:34.367Z,98947.88
2019-01-29T08:35:02.443Z,98962.71
2019-01-29T08:37:30.293Z,98958.02
2019-01-29T08:39:58.217Z,98966.34
2019-01-29T08:42:26.312Z,98974.36
2019-01-29T08:44:54.286Z,98984.73
2019-01-29T08:47:22.332Z,98987.61
2019-01-29T08:49:50.416Z,98994.52
2019-01-29T08:52:18.551Z,98994.67
2019-01-29T08:54:46.689Z,98993.13
2019-01-29T08:57:14.672Z,99004.63
2019-01-29T08:59:43.146Z,99005.52
2019-01-29T09:02:11.113Z,99017.36
2019-01-29T09:04:39.112Z,99020.98
2019-01-29T09:07:07.173Z,99018.89
2019-01-29T09:09:35.068Z,99028.59
2019-01-29T09:12:03.201Z,99041.58
2019-01-29T09:14:31.003Z,99047.74
2019-01-29T09:16:58.969Z,99057.97
2019-01-29T09:19:27.136Z,99050.20
2019-01-29T09:21:55.051Z,99057.17
2019-01-29T09:24:22.928Z,99062.57
2019-01-29T09:26:50.933Z,99065.34
2019-01-29T09:29:19.197Z,99086.70
2019-01-29T09:31:47.269Z,99075.88
2019-01-29T09:34:15.328Z,99080.31
2019-01-29T09:36:43.337Z,99089.32
2019-01-29T09:39:12.455Z,99095.74
2019-01-29T09:41:40.434Z,99101.95
2019-01-29T09:44:08.633Z,99088.92
2019-01-29T09:46:36.654Z,99098.27
2019-01-29T09:49:14.892Z,99106.82
2019-01-29T09:51:43.035Z,99110.55
2019-01-29T09:54:11.164Z,99115.81
2019-01-29T09:56:39.147Z,99116.42
2019-01-29T09:59:07.411Z,99113.80
2019-01-29T10:01:35.289Z,99118.25
2019-01-29T10:04:03.304Z,99118.02
2019-01-29T10:06:31.350Z,99113.88
2019-01-29T10:08:59.157Z,99124.80
2019-01-29T10:11:28.587Z,99121.53
2019-01-29T10:13:56.593Z,99136.06
2019-01-29T10:16:24.571Z,99119.70
2019-01-29T10:18:52.478Z,99112.61
2019-01-29T10:21:20.396Z,99151.05
2019-01-29T10:23:48.403Z,99139.53
2019-01-29T10:26:16.576Z,99148.44
2019-01-29T10:28:44.550Z,99128.08
2019-01-29T10:31:12.611Z,99126.27
2019-01-29T10:33:40.489Z,99144.11
2019-01-29T10:36:09.158Z,99147.82
2019-01-29T10:38:37.116Z,99136.00
2019-01-29T10:41:05.043Z,99145.31
2019-01-29T10:43:32.947Z,99151.75
2019-01-29T10:46:01.009Z,99143.59
2019-01-29T10:48:28.909Z,99158.62
2019-01-29T10:50:58.698Z,99155.63
2019-01-29T10:53:27.079Z,99158.12
2019-01-29T10:55:55.064Z,99149.69
2019-01-29T10:58:23.180Z,99151.45
2019-01-29T11:00:51.352Z,99146.77
2019-01-29T11:03:19.353Z,99153.16
2019-01-29T11:05:47.226Z,99156.98
2019-01-29T11:08:15.403Z,99157.68
2019-01-29T11:10:43.479Z,99152.09
2019-01-29T11:13:11.561Z,99153.81
2019-01-29T11:15:41.253Z,99174.37
2019-01-29T11:18:11.904Z,99156.63
2019-01-29T11:20:40.238Z,99146.48
2019-01-29T11:23:08.807Z,99177.48
2019-01-29T11:25:37.757Z,99160.48
2019-01-29T11:28:05.829Z,99153.96
2019-01-29T11:30:34.011Z,99187.13
2019-01-29T11:33:02.189Z,99176.20
2019-01-29T11:35:30.444Z,99178.68
2019-01-29T11:37:58.496Z,99180.76
2019-01-29T11:40:28.035Z,99180.97
2019-01-29T11:42:56.107Z,99183.70
2019-01-29T11:45:29.120Z,99184.40
2019-01-29T11:47:57.224Z,99190.33
2019-01-29T11:50:26.020Z,99193.86
2019-01-29T11:52:53.989Z,99184.61
2019-01-29T11:55:22.822Z,99184.16
2019-01-29T11:57:50.733Z,99169.46
2019-01-29T12:00:27.621Z,99180.16
2019-01-29T12:02:55.762Z,99173.52
2019-01-29T12:05:24.138Z,99172.21
2019-01-29T12:07:52.105Z,99182.03
2019-01-29T12:10:19.918Z,99179.63
2019-01-29T12:12:47.991Z,99190.71
2019-01-29T12:15:17.005Z,99171.31
2019-01-29T12:17:45.067Z,99187.24
2019-01-29T12:20:14.265Z,99193.94
2019-01-29T12:22:42.294Z,99193.94
2019-01-29T12:25:10.257Z,99186.59
2019-01-29T12:27:38.345Z,99206.45
2019-01-29T12:30:10.747Z,99193.68
2019-01-29T12:32:38.761Z,99201.78
2019-01-29T12:35:08.312Z,99207.20
2019-01-29T12:37:37.138Z,99215.16
2019-01-29T12:40:06.148Z,99215.80
2019-01-29T12:42:34.179Z,99209.37
2019-01-29T12:45:03.635Z,99219.38
2019-01-29T12:47:31.699Z,99217.45
2019-01-29T12:50:00.277Z,99216.45
2019-01-29T12:52:36.973Z,99212.17
2019-01-29T12:55:08.708Z,99212.28
2019-01-29T12:57:36.768Z,99224.97
2019-01-29T13:00:07.091Z,99207.17
2019-01-29T13:02:34.943Z,99202.63
2019-01-29T13:05:04.780Z,99204.67
2019-01-29T13:07:32.776Z,99202.92
2019-01-29T13:10:00.766Z,99200.17
2019-01-29T13:12:28.839Z,99203.91
2019-01-29T13:14:56.827Z,99202.22
2019-01-29T13:17:24.635Z,99195.02
2019-01-29T13:19:52.714Z,99182.53
2019-01-29T13:22:20.634Z,99191.16
2019-01-29T13:24:48.517Z,99188.84
2019-01-29T13:27:16.602Z,99189.41
2019-01-29T13:29:45.732Z,99185.94
2019-01-29T13:32:13.760Z,99199.19
2019-01-29T13:34:41.760Z,99193.63
2019-01-29T13:37:09.733Z,99190.92
2019-01-29T13:39:37.605Z,99185.27
2019-01-29T13:42:05.643Z,99191.91
2019-01-29T13:44:33.550Z,99194.05
2019-01-29T13:47:01.720Z,99202.72
2019-01-29T13:49:29.551Z,99205.34
2019-01-29T13:51:57.349Z,99206.02
2019-01-29T13:54:25.447Z,99210.22
2019-01-29T13:56:53.418Z,99201.02
2019-01-29T13:59:21.393Z,99210.82
2019-01-29T14:01:49.550Z,99210.63
2019-01-29T14:04:17.515Z,99220.86
2019-01-29T14:06:45.338Z,99228.27
2019-01-29T14:09:41.554Z,99226.98
2019-01-29T14:12:09.532Z,99227.16
2019-01-29T14:14:37.483Z,99229.42
2019-01-29T14:17:05.477Z,99226.73
2019-01-29T14:19:33.418Z,99232.92
2019-01-29T14:22:01.298Z,99234.41
2019-01-29T14:24:29.203Z,99229.61
2019-01-29T14:26:57.277Z,99223.32
2019-01-29T14:29:25.330Z,99226.55
2019-01-29T14:31:53.276Z,99231.55
2019-01-29T14:34:21.673Z,99235.71
2019-01-29T14:36:49.767Z,99234.08
2019-01-29T14:39:27.625Z,99236.93
2019-01-29T14:41:55.698Z,99240.71
2019-01-29T14:44:39.053Z,99244.44
2019-01-29T14:47:07.148Z,99245.65
2019-01-29T14:49:35.078Z,99254.20
2019-01-29T14:52:03.063Z,99256.91
2019-01-29T14:54:31.192Z,99254.77
2019-01-29T14:56:59.941Z,99256.56
2019-01-29T14:59:27.984Z,99257.88
2019-01-29T15:01:55.777Z,99258.22
2019-01-29T15:04:23.895Z,99271.86
2019-01-29T15:06:52.783Z,99268.89
2019-01-29T15:09:20.749Z,99273.08
2019-01-29T15:11:48.775Z,99267.58
2019-01-29T15:14:16.812Z,99269.50
2019-01-29T15:17:22.628Z,99274.12
2019-01-29T15:19:50.623Z,99273.98
2019-01-29T15:22:18.547Z,99274.83
2019-01-29T15:24:46.950Z,99275.53
2019-01-29T15:27:14.938Z,99272.67
2019-01-29T15:29:43.078Z,99278.66
2019-01-29T15:32:11.057Z,99273.34
2019-01-29T15:34:39.952Z,99274.06
2019-01-29T15:37:08.126Z,99272.20
2019-01-29T15:39:36.166Z,99272.45
2019-01-29T15:42:04.436Z,99274.72
2019-01-29T15:44:32.983Z,99279.87
2019-01-29T15:47:00.884Z,99273.84
2019-01-29T15:49:28.795Z,99275.75
2019-01-29T15:51:56.645Z,99276.27
2019-01-29T15:54:24.639Z,99274.63
2019-01-29T15:56:52.665Z,99276.94
2019-01-29T15:59:20.613Z,99279.45
2019-01-29T16:01:48.482Z,99286.16
2019-01-29T16:04:16.649Z,99290.44
2019-01-29T16:06:44.649Z,99292.14
2019-01-29T16:09:12.665Z,99292.64
2019-01-29T16:11:40.527Z,99297.06
2019-01-29T16:14:09.503Z,99293.39
2019-01-29T16:16:37.662Z,99296.02
2019-01-29T16:19:06.302Z,99292.45
2019-01-29T16:21:34.378Z,99292.69
2019-01-29T16:24:02.425Z,99297.22
2019-01-29T16:26:31.529Z,99305.09
2019-01-29T16:28:59.570Z,99312.94
2019-01-29T16:31:28.641Z,99311.52
2019-01-29T16:33:58.765Z,99315.33
2019-01-29T16:36:26.811Z,99315.58
2019-01-29T16:38:54.750Z,99323.31
2019-01-29T16:41:23.252Z,99317.26
2019-01-29T16:43:51.033Z,99324.74
2019-01-29T16:46:18.894Z,99320.25
2019-01-29T16:48:46.655Z,99328.55
2019-01-29T16:51:14.597Z,99328.55
2019-01-29T16:53:42.497Z,99323.92
2019-01-29T16:56:10.540Z,99323.33
2019-01-29T16:58:38.523Z,99325.95
2019-01-29T17:01:06.737Z,99323.44
2019-01-29T17:03:34.902Z,99328.45
2019-01-29T17:06:02.984Z,99329.14
2019-01-29T17:08:30.924Z,99325.72
2019-01-29T17:10:58.900Z,99325.47
2019-01-29T17:13:26.920Z,99317.27
2019-01-29T17:15:55.042Z,99315.02
2019-01-29T17:18:22.933Z,99320.13
2019-01-29T17:20:51.023Z,99318.72
2019-01-29T17:23:19.087Z,99318.70
2019-01-29T17:25:47.119Z,99328.09
2019-01-29T17:28:15.140Z,99331.08
2019-01-29T17:30:43.647Z,99330.35
2019-01-29T17:33:15.221Z,99324.89
2019-01-29T17:35:44.835Z,99319.05
2019-01-29T17:38:13.173Z,99326.18
2019-01-29T17:40:41.173Z,99322.61
2019-01-29T17:43:09.140Z,99323.47
2019-01-29T17:45:39.719Z,99331.42
2019-01-29T17:48:07.797Z,99323.23
2019-01-29T17:50:38.049Z,99325.60
2019-01-29T17:53:06.210Z,99328.92
2019-01-29T17:55:35.914Z,99321.45
2019-01-29T17:58:05.441Z,99329.18
2019-01-29T18:00:34.649Z,99327.27
2019-01-29T18:03:03.554Z,99329.16
2019-01-29T18:05:31.616Z,99322.28
2019-01-29T18:07:59.843Z,99330.22
2019-01-29T18:10:28.338Z,99323.92
2019-01-29T18:12:56.359Z,99322.39
2019-01-29T18:15:26.843Z,99329.62
2019-01-29T18:17:54.996Z,99333.19
2019-01-29T18:20:23.118Z,99327.97
2019-01-29T18:22:51.272Z,99335.91
2019-01-29T18:25:19.286Z,99335.30
2019-01-29T18:27:47.287Z,99342.19
2019-01-29T18:30:17.884Z,99336.02
2019-01-29T18:32:46.358Z,99331.52
2019-01-29T18:35:14.485Z,99338.16
2019-01-29T18:37:45.324Z,99335.78
2019-01-29T18:40:16.264Z,99336.73
2019-01-29T18:42:44.314Z,99329.00
2019-01-29T18:45:13.021Z,99333.28
2019-01-29T18:47:41.127Z,99326.52
2019-01-29T18:50:10.834Z,99334.36
2019-01-29T18:52:38.813Z,99327.83
2019-01-29T18:55:07.717Z,99337.06
2019-01-29T18:57:35.581Z,99337.20
2019-01-29T19:00:05.433Z,99328.66
2019-01-29T19:02:33.291Z,99334.92
2019-01-29T19:05:01.324Z,99335.16
2019-01-29T19:07:29.348Z,99336.45
2019-01-29T19:09:57.766Z,99329.35
2019-01-29T19:12:25.824Z,99327.56
2019-01-29T19:14:53.726Z,99325.89
2019-01-29T19:17:21.544Z,99328.86
2019-01-29T19:19:49.731Z,99316.15
2019-01-29T19:22:18.387Z,99329.33
2019-01-29T19:24:46.170Z,99325.73
2019-01-29T19:27:14.064Z,99321.95
2019-01-29T19:29:42.264Z,99330.96
2019-01-29T19:32:10.159Z,99323.95
2019-01-29T19:34:38.144Z,99319.34
2019-01-29T19:37:06.201Z,99319.22
2019-01-29T19:39:34.111Z,99321.59
2019-01-29T19:42:02.046Z,99316.97
2019-01-29T19:44:29.957Z,99296.07
2019-01-29T19:46:58.222Z,99319.94
2019-01-29T19:49:26.230Z,99320.98
2019-01-29T19:51:54.225Z,99322.06
2019-01-29T19:54:22.198Z,99326.66
2019-01-29T19:56:50.199Z,99329.63
2019-01-29T19:59:20.022Z,99330.20
2019-01-29T20:01:47.811Z,99331.16
2019-01-29T20:04:15.673Z,99334.90
2019-01-29T20:06:43.770Z,99331.44
2019-01-29T20:09:12.808Z,99327.17
2019-01-29T20:11:47.097Z,99333.23
2019-01-29T20:14:15.035Z,99335.12
2019-01-29T20:16:43.055Z,99333.42
2019-01-29T20:19:11.122Z,99333.51
2019-01-29T20:21:39.828Z,99332.19
2019-01-29T20:24:07.883Z,99332.42
2019-01-29T20:26:35.873Z,99330.84
2019-01-29T20:29:04.703Z,99327.65
2019-01-29T20:31:32.623Z,99326.44
2019-01-29T20:34:00.506Z,99324.09
2019-01-29T20:36:28.561Z,99318.04
2019-01-29T20:38:56.486Z,99323.83
2019-01-29T20:41:24.733Z,99325.05
2019-01-29T20:43:52.657Z,99316.95
2019-01-29T20:46:20.552Z,99313.63
2019-01-29T20:48:48.481Z,99315.06
2019-01-29T20:51:16.482Z,99320.73
2019-01-29T20:53:44.451Z,99317.77
2019-01-29T20:56:12.329Z,99316.68
2019-01-29T20:58:40.409Z,99319.15
2019-01-29T21:01:08.519Z,99319.78
2019-01-29T21:03:36.511Z,99322.04
2019-01-29T21:06:04.936Z,99316.33
2019-01-29T21:08:32.830Z,99318.46
2019-01-29T21:11:00.769Z,99317.13
2019-01-29T21:13:30.588Z,99313.16
2019-01-29T21:15:58.597Z,99313.48
2019-01-29T21:18:26.465Z,99309.73
2019-01-29T21:20:57.209Z,99314.03
2019-01-29T21:23:24.320Z,99309.86
2019-01-29T21:25:52.462Z,99310.52
2019-01-29T21:28:20.520Z,99314.02
2019-01-29T21:30:50.030Z,99319.13
2019-01-29T21:33:18.347Z,99322.05
2019-01-29T21:35:46.243Z,99321.11
2019-01-29T21:38:14.523Z,99323.72
2019-01-29T21:40:42.646Z,99330.37
2019-01-29T21:43:10.851Z,99320.97
2019-01-29T21:45:38.900Z,99317.41
2019-01-29T21:48:06.976Z,99323.52
2019-01-29T21:50:35.118Z,99323.72
2019-01-29T21:53:03.614Z,99318.15
2019-01-29T21:55:31.791Z,99310.13
2019-01-29T21:57:59.744Z,99312.30
2019-01-29T22:00:51.481Z,99311.52
2019-01-29T22:03:19.931Z,99310.87
2019-01-29T22:05:47.882Z,99305.27
2019-01-29T22:08:15.913Z,99304.94
2019-01-29T22:10:43.906Z,99307.87
2019-01-29T22:13:12.960Z,99303.97
2019-01-29T22:15:43.953Z,99298.26
2019-01-29T22:18:13.248Z,99295.72
2019-01-29T22:20:41.285Z,99289.28
2019-01-29T22:23:09.301Z,99287.83
2019-01-29T22:25:37.990Z,99286.96
2019-01-29T22:28:08.133Z,99295.92
2019-01-29T22:30:36.960Z,99292.37
2019-01-29T22:33:05.741Z,99293.11
2019-01-29T22:35:33.733Z,99285.59
2019-01-29T22:38:01.792Z,99282.08
2019-01-29T22:40:30.371Z,99287.78
2019-01-29T22:42:59.211Z,99286.97
2019-01-29T22:45:27.335Z,99281.41
2019-01-29T22:47:55.326Z,99287.12
2019-01-29T22:50:28.048Z,99285.45
2019-01-29T22:52:56.044Z,99283.94
2019-01-29T22:55:24.155Z,99278.23
2019-01-29T22:57:52.163Z,99284.39
2019-01-29T23:00:52.284Z,99275.85
2019-01-29T23:03:22.367Z,99279.89
2019-01-29T23:06:00.632Z,99271.95
2019-01-29T23:08:29.015Z,99267.95
2019-01-29T23:10:57.419Z,99275.28
2019-01-29T23:13:25.651Z,99269.25
2019-01-29T23:15:53.646Z,99265.34
2019-01-29T23:18:22.013Z,99264.14
2019-01-29T23:20:50.421Z,99265.56
2019-01-29T23:23:18.181Z,99258.20
2019-01-29T23:25:45.982Z,99259.15
2019-01-29T23:28:13.939Z,99254.16
2019-01-29T23:30:41.983Z,99253.20
2019-01-29T23:33:09.958Z,99250.69
2019-01-29T23:35:38.826Z,99244.88
2019-01-29T23:38:06.877Z,99251.97
2019-01-29T23:40:34.820Z,99248.28
2019-01-29T23:43:02.926Z,99246.34
2019-01-29T23:45:30.816Z,99247.28
2019-01-29T23:48:01.518Z,99243.50
2019-01-29T23:50:30.408Z,99244.66
2019-01-29T23:52:58.370Z,99235.77
2019-01-29T23:55:26.599Z,99237.28
2019-01-29T23:57:54.457Z,99243.12
